Chelsea, Vermont
Current Conditions -  °F | °C
As of 5:24 AM on Friday 21 Nov 2014 (Local Time) from KMPV Reporting Station
Light Snow Light Snow  
Wind Chill: 10°   Ceiling: 1300
Heat Index: 20°   Visibility: 1mi
Dew Point: 15°   Wind: 8mph
Humidity: 81%   Direction: 280°W
Pressure: 29.93"   Gusts: NA
Location:  43.99°N, 72.45°W
Report Text: KMPV 211024Z AUTO 28007KT 1SM -SN VV013 M07/M09 A2993 RMK AO2 P0000 T10671094
Loading
Personal Weather Stations






























Interactive Weather Map New forecast layout! Learn more

10-Day Weather Forecast

Advertisements
Track Severe Weather on mobile